createdAt,value
2023-01-15T00:00:29.009Z,0.90
2023-01-15T00:03:17.797Z,0.90
2023-01-15T00:05:46.251Z,0.80
2023-01-15T00:08:14.845Z,0.90
2023-01-15T00:10:43.283Z,0.60
2023-01-15T00:13:12.334Z,0.70
2023-01-15T00:15:40.900Z,0.50
2023-01-15T00:18:09.401Z,0.70
2023-01-15T00:20:37.866Z,0.70
2023-01-15T00:23:06.398Z,0.60
2023-01-15T00:25:53.550Z,0.70
2023-01-15T00:28:22.106Z,0.60
2023-01-15T00:30:50.674Z,0.70
2023-01-15T00:33:19.499Z,0.70
2023-01-15T00:35:49.760Z,0.40
2023-01-15T00:38:19.045Z,0.60
2023-01-15T00:40:53.104Z,0.60
2023-01-15T00:43:21.702Z,0.50
2023-01-15T00:45:51.576Z,0.50
2023-01-15T00:48:20.261Z,0.40
2023-01-15T00:50:48.761Z,0.40
2023-01-15T00:53:17.309Z,0.50
2023-01-15T00:55:45.752Z,0.60
2023-01-15T00:58:14.263Z,0.60
2023-01-15T01:00:43.248Z,0.40
2023-01-15T01:03:11.965Z,0.50
2023-01-15T01:05:40.891Z,0.40
2023-01-15T01:08:09.328Z,0.40
2023-01-15T01:10:37.888Z,0.60
2023-01-15T01:13:07.028Z,0.50
2023-01-15T01:15:37.397Z,0.50
2023-01-15T01:18:07.237Z,0.50
2023-01-15T01:20:38.833Z,0.40
2023-01-15T01:23:07.362Z,0.40
2023-01-15T01:25:36.785Z,0.40
2023-01-15T01:28:05.548Z,0.50
2023-01-15T01:30:34.010Z,0.50
2023-01-15T01:33:03.098Z,0.50
2023-01-15T01:35:31.871Z,0.40
2023-01-15T01:38:00.572Z,0.40
2023-01-15T01:40:29.075Z,0.50
2023-01-15T01:42:57.633Z,0.60
2023-01-15T01:45:29.766Z,0.50
2023-01-15T01:48:02.934Z,0.40
2023-01-15T01:50:33.842Z,0.40
2023-01-15T01:53:18.099Z,0.60
2023-01-15T01:55:49.425Z,0.40
2023-01-15T01:58:19.691Z,0.60
2023-01-15T02:00:51.895Z,0.40
2023-01-15T02:03:27.221Z,0.40
2023-01-15T02:05:59.999Z,0.60
2023-01-15T02:08:29.633Z,0.40
2023-01-15T02:10:59.127Z,0.40
2023-01-15T02:13:40.571Z,0.40
2023-01-15T02:16:14.119Z,0.60
2023-01-15T02:19:04.222Z,0.40
2023-01-15T02:21:53.888Z,0.30
2023-01-15T02:24:56.346Z,0.40
2023-01-15T02:27:26.406Z,0.50
2023-01-15T02:30:04.760Z,0.40
2023-01-15T02:32:50.317Z,0.40
2023-01-15T02:35:25.459Z,0.30
2023-01-15T02:38:04.828Z,0.40
2023-01-15T02:40:36.612Z,0.50
2023-01-15T02:43:08.036Z,0.40
2023-01-15T02:45:42.474Z,0.40
2023-01-15T02:48:16.849Z,0.30
2023-01-15T02:50:56.952Z,0.50
2023-01-15T02:53:28.963Z,0.50
2023-01-15T02:56:08.270Z,0.60
2023-01-15T02:58:45.663Z,0.30
2023-01-15T03:01:22.129Z,0.40
2023-01-15T03:03:53.818Z,0.40
2023-01-15T03:06:33.490Z,0.30
2023-01-15T03:09:02.490Z,0.30
2023-01-15T03:11:38.455Z,0.30
2023-01-15T03:14:09.778Z,0.40
2023-01-15T03:16:44.314Z,0.50
2023-01-15T03:19:15.649Z,0.40
2023-01-15T03:22:00.144Z,0.30
2023-01-15T03:24:55.986Z,0.30
2023-01-15T03:27:25.187Z,0.40
2023-01-15T03:30:06.545Z,0.40
2023-01-15T03:32:36.061Z,0.50
2023-01-15T03:35:08.141Z,0.30
2023-01-15T03:37:38.347Z,0.60
2023-01-15T03:40:08.048Z,0.40
2023-01-15T03:43:20.097Z,0.40
2023-01-15T03:45:53.860Z,0.50
2023-01-15T03:48:37.221Z,0.60
2023-01-15T03:51:14.475Z,0.50
2023-01-15T03:53:50.061Z,0.40
2023-01-15T03:56:32.012Z,0.40
2023-01-15T03:59:08.320Z,0.40
2023-01-15T04:02:06.109Z,0.40
2023-01-15T04:04:35.419Z,0.60
2023-01-15T04:07:04.976Z,0.40
2023-01-15T04:09:40.011Z,0.60
2023-01-15T04:12:11.784Z,0.50
2023-01-15T04:14:47.617Z,0.50
2023-01-15T04:17:19.669Z,0.50
2023-01-15T04:19:48.204Z,0.60
2023-01-15T04:22:16.669Z,0.40
2023-01-15T04:24:46.056Z,0.60
2023-01-15T04:27:14.682Z,0.40
2023-01-15T04:29:43.117Z,0.50
2023-01-15T04:32:11.594Z,0.40
2023-01-15T04:34:40.257Z,0.50
2023-01-15T04:37:08.755Z,0.40
2023-01-15T04:39:37.250Z,0.40
2023-01-15T04:42:37.919Z,0.40
2023-01-15T04:45:07.243Z,0.50
2023-01-15T04:47:36.350Z,0.40
2023-01-15T04:50:05.328Z,0.40
2023-01-15T04:52:33.765Z,0.50
2023-01-15T04:55:02.236Z,0.40
2023-01-15T04:57:30.804Z,0.40
2023-01-15T04:59:59.415Z,0.50
2023-01-15T05:02:28.055Z,0.50
2023-01-15T05:04:56.969Z,0.40
2023-01-15T05:07:25.455Z,0.60
2023-01-15T05:09:55.233Z,0.40
2023-01-15T05:12:23.824Z,0.50
2023-01-15T05:14:52.784Z,0.60
2023-01-15T05:17:21.418Z,0.40
2023-01-15T05:19:50.011Z,0.40
2023-01-15T05:22:19.223Z,0.40
2023-01-15T05:24:58.796Z,0.70
2023-01-15T05:27:27.532Z,0.50
2023-01-15T05:30:03.236Z,0.50
2023-01-15T05:32:35.812Z,0.50
2023-01-15T05:35:09.031Z,0.90
2023-01-15T05:37:37.666Z,0.60
2023-01-15T05:40:14.107Z,0.70
2023-01-15T05:42:50.123Z,0.70
2023-01-15T05:45:25.320Z,0.60
2023-01-15T05:47:54.257Z,0.60
2023-01-15T05:50:22.838Z,0.50
2023-01-15T05:52:54.549Z,0.70
2023-01-15T05:55:23.654Z,0.40
2023-01-15T05:57:52.274Z,0.40
2023-01-15T06:00:24.623Z,0.50
2023-01-15T06:02:55.531Z,0.50
2023-01-15T06:05:24.057Z,0.60
2023-01-15T06:07:53.247Z,0.60
2023-01-15T06:10:26.094Z,0.50
2023-01-15T06:12:54.590Z,0.50
2023-01-15T06:15:23.148Z,0.60
2023-01-15T06:17:51.706Z,0.50
2023-01-15T06:20:20.182Z,0.60
2023-01-15T06:22:49.893Z,0.50
2023-01-15T06:25:18.360Z,0.50
2023-01-15T06:27:49.815Z,0.50
2023-01-15T06:30:18.677Z,0.40
2023-01-15T06:32:47.312Z,0.40
2023-01-15T06:35:15.922Z,0.50
2023-01-15T06:37:44.442Z,0.50
2023-01-15T06:40:13.291Z,0.60
2023-01-15T06:43:00.676Z,0.80
2023-01-15T06:45:58.790Z,0.40
2023-01-15T06:48:27.851Z,0.50
2023-01-15T06:50:56.737Z,0.60
2023-01-15T06:53:25.457Z,0.50
2023-01-15T06:55:53.981Z,0.50
2023-01-15T06:58:22.775Z,0.80
2023-01-15T07:00:56.120Z,0.60
2023-01-15T07:03:25.124Z,0.70
2023-01-15T07:05:53.547Z,0.50
2023-01-15T07:08:22.129Z,0.50
2023-01-15T07:10:50.538Z,0.60
2023-01-15T07:13:19.077Z,0.70
2023-01-15T07:15:47.558Z,0.50
2023-01-15T07:18:16.045Z,0.60
2023-01-15T07:20:44.552Z,0.80
2023-01-15T07:23:13.132Z,0.60
2023-01-15T07:25:41.959Z,0.70
2023-01-15T07:28:10.453Z,0.60
2023-01-15T07:30:38.995Z,0.50
2023-01-15T07:33:07.495Z,0.60
2023-01-15T07:35:37.412Z,0.70
2023-01-15T07:38:06.023Z,0.80
2023-01-15T07:40:34.521Z,0.60
2023-01-15T07:43:21.652Z,0.70
2023-01-15T07:46:08.765Z,0.70
2023-01-15T07:48:55.985Z,0.60
2023-01-15T07:51:24.486Z,0.80
2023-01-15T07:53:52.977Z,0.80
2023-01-15T07:56:21.481Z,0.60
2023-01-15T07:58:51.327Z,0.60
2023-01-15T08:01:20.047Z,0.90
2023-01-15T08:03:48.586Z,0.50
2023-01-15T08:06:17.075Z,0.70
2023-01-15T08:08:45.891Z,0.70
2023-01-15T08:11:33.169Z,0.60
2023-01-15T08:14:20.521Z,0.60
2023-01-15T08:16:49.133Z,0.80
2023-01-15T08:19:17.616Z,0.60
2023-01-15T08:21:50.168Z,0.80
2023-01-15T08:24:18.658Z,0.50
2023-01-15T08:26:47.097Z,0.60
2023-01-15T08:29:15.703Z,0.60
2023-01-15T08:31:44.308Z,0.50
2023-01-15T08:34:13.179Z,0.50
2023-01-15T08:36:42.744Z,0.60
2023-01-15T08:39:11.546Z,0.50
2023-01-15T08:41:39.969Z,0.50
2023-01-15T08:44:09.917Z,0.60
2023-01-15T08:46:38.371Z,0.50
2023-01-15T08:49:06.933Z,0.50
2023-01-15T08:51:35.402Z,0.50
2023-01-15T08:54:04.043Z,0.40
2023-01-15T08:56:32.596Z,0.50
2023-01-15T08:59:05.305Z,0.40
2023-01-15T09:01:34.653Z,0.50
2023-01-15T09:04:03.248Z,0.50
2023-01-15T09:06:31.699Z,0.50
2023-01-15T09:09:00.860Z,0.50
2023-01-15T09:11:29.744Z,0.60
2023-01-15T09:13:58.260Z,0.50
2023-01-15T09:16:28.375Z,0.50
2023-01-15T09:18:57.038Z,0.50
2023-01-15T09:21:25.556Z,0.50
2023-01-15T09:23:54.087Z,0.60
2023-01-15T09:26:38.519Z,0.50
2023-01-15T09:29:09.104Z,0.90
2023-01-15T09:31:37.623Z,0.70
2023-01-15T09:34:06.130Z,0.50
2023-01-15T09:36:36.094Z,0.60
2023-01-15T09:39:07.009Z,0.70
2023-01-15T09:42:08.783Z,0.70
2023-01-15T09:45:28.777Z,1.00
2023-01-15T09:48:25.162Z,0.80
2023-01-15T09:51:23.513Z,0.70
2023-01-15T09:54:13.489Z,0.40
2023-01-15T09:56:42.379Z,1.00
2023-01-15T09:59:36.197Z,0.90
2023-01-15T10:02:32.173Z,0.70
2023-01-15T10:05:18.726Z,0.60
2023-01-15T10:08:08.727Z,0.80
2023-01-15T10:11:00.374Z,1.20
2023-01-15T10:13:49.998Z,0.80
2023-01-15T10:16:36.325Z,0.50
2023-01-15T10:19:04.874Z,1.10
2023-01-15T10:21:57.662Z,1.10
2023-01-15T10:24:41.054Z,0.80
2023-01-15T10:27:28.281Z,1.20
2023-01-15T10:30:12.741Z,0.90
2023-01-15T10:33:03.343Z,0.70
2023-01-15T10:36:07.764Z,0.70
2023-01-15T10:39:01.536Z,1.10
2023-01-15T10:42:02.558Z,0.90
2023-01-15T10:45:12.273Z,0.70
2023-01-15T10:47:43.671Z,0.80
2023-01-15T10:50:22.095Z,0.90
2023-01-15T10:53:28.531Z,0.90
2023-01-15T10:56:20.299Z,1.20
2023-01-15T10:59:16.687Z,1.30
2023-01-15T11:01:49.366Z,1.40
2023-01-15T11:04:18.042Z,1.20
2023-01-15T11:06:47.207Z,1.50
2023-01-15T11:09:36.499Z,1.10
2023-01-15T11:12:27.174Z,0.60
2023-01-15T11:15:14.620Z,1.00
2023-01-15T11:18:04.459Z,0.90
2023-01-15T11:20:44.497Z,1.30
2023-01-15T11:23:16.994Z,1.70
2023-01-15T11:25:59.911Z,1.30
2023-01-15T11:28:47.736Z,1.40
2023-01-15T11:31:17.458Z,1.90
2023-01-15T11:33:58.919Z,1.30
2023-01-15T11:36:29.688Z,1.30
2023-01-15T11:38:58.663Z,0.90
2023-01-15T11:41:47.001Z,0.90
2023-01-15T11:44:35.850Z,1.10
2023-01-15T11:47:32.235Z,1.10
2023-01-15T11:50:19.539Z,0.50
2023-01-15T11:52:55.886Z,0.50
2023-01-15T11:55:27.945Z,0.40
2023-01-15T11:57:58.911Z,0.50
2023-01-15T12:00:50.752Z,0.60
2023-01-15T12:03:22.895Z,0.50
2023-01-15T12:05:56.246Z,0.50
2023-01-15T12:08:52.845Z,0.60
2023-01-15T12:11:35.651Z,0.50
2023-01-15T12:14:10.053Z,0.70
2023-01-15T12:16:53.867Z,0.60
2023-01-15T12:19:48.543Z,0.50
2023-01-15T12:22:29.827Z,0.60
2023-01-15T12:25:13.763Z,0.50
2023-01-15T12:27:53.177Z,0.80
2023-01-15T12:30:45.091Z,0.70
2023-01-15T12:33:16.312Z,0.70
2023-01-15T12:35:57.644Z,0.70
2023-01-15T12:38:42.956Z,0.40
2023-01-15T12:41:16.681Z,0.60
2023-01-15T12:44:17.401Z,0.60
2023-01-15T12:46:46.994Z,0.70
2023-01-15T12:49:46.297Z,0.60
2023-01-15T12:52:24.849Z,0.70
2023-01-15T12:55:13.620Z,0.90
2023-01-15T12:57:49.850Z,0.60
2023-01-15T13:00:39.882Z,0.70
2023-01-15T13:03:38.901Z,0.60
2023-01-15T13:06:09.678Z,1.00
2023-01-15T13:08:54.929Z,0.80
2023-01-15T13:11:23.620Z,0.80
2023-01-15T13:13:58.446Z,0.80
2023-01-15T13:16:59.186Z,0.70
2023-01-15T13:19:50.512Z,0.70
2023-01-15T13:22:25.648Z,0.70
2023-01-15T13:25:29.857Z,0.70
2023-01-15T13:28:20.534Z,1.00
2023-01-15T13:30:57.970Z,0.90
2023-01-15T13:33:55.920Z,1.70
2023-01-15T13:36:34.114Z,1.20
2023-01-15T13:39:05.956Z,1.00
2023-01-15T13:41:54.115Z,1.20
2023-01-15T13:44:26.321Z,0.70
2023-01-15T13:47:09.414Z,0.70
2023-01-15T13:49:49.671Z,0.90
2023-01-15T13:52:31.678Z,0.70
2023-01-15T13:55:09.329Z,0.90
2023-01-15T13:57:41.385Z,1.10
2023-01-15T14:00:37.414Z,1.20
2023-01-15T14:03:30.433Z,1.60
2023-01-15T14:06:02.538Z,1.30
2023-01-15T14:08:43.201Z,1.50
2023-01-15T14:11:30.466Z,1.90
2023-01-15T14:14:36.850Z,2.20
2023-01-15T14:17:29.923Z,1.70
2023-01-15T14:20:20.396Z,1.70
2023-01-15T14:22:51.862Z,1.30
2023-01-15T14:25:58.037Z,1.60
2023-01-15T14:28:48.135Z,1.30
2023-01-15T14:31:42.276Z,1.00
2023-01-15T14:34:16.744Z,1.20
2023-01-15T14:37:05.298Z,1.10
2023-01-15T14:39:43.512Z,1.00
2023-01-15T14:42:42.630Z,0.80
2023-01-15T14:45:11.935Z,0.80
2023-01-15T14:47:49.919Z,1.10
2023-01-15T14:50:33.917Z,0.90
2023-01-15T14:53:11.678Z,1.30
2023-01-15T14:55:59.184Z,1.00
2023-01-15T14:58:52.226Z,0.80
2023-01-15T15:01:57.130Z,0.90
2023-01-15T15:04:41.232Z,1.30
2023-01-15T15:07:16.701Z,1.00
2023-01-15T15:10:17.622Z,1.20
2023-01-15T15:13:07.761Z,1.50
2023-01-15T15:15:56.618Z,1.40
2023-01-15T15:18:29.299Z,1.30
2023-01-15T15:21:07.848Z,1.20
2023-01-15T15:23:48.975Z,1.30
2023-01-15T15:26:28.096Z,1.20
2023-01-15T15:29:06.240Z,2.10
2023-01-15T15:31:37.857Z,1.50
2023-01-15T15:34:09.137Z,1.70
2023-01-15T15:36:39.689Z,1.70
2023-01-15T15:39:42.703Z,1.10
2023-01-15T15:42:44.482Z,1.40
2023-01-15T15:45:49.650Z,1.70
2023-01-15T15:48:45.413Z,1.50
2023-01-15T15:51:37.002Z,1.20
2023-01-15T15:54:38.088Z,1.20
2023-01-15T15:57:19.335Z,1.50
2023-01-15T15:59:52.630Z,1.20
2023-01-15T16:02:39.126Z,1.40
2023-01-15T16:05:32.115Z,1.30
2023-01-15T16:08:20.930Z,1.30
2023-01-15T16:10:55.663Z,1.20
2023-01-15T16:13:46.776Z,1.20
2023-01-15T16:16:19.270Z,1.20
2023-01-15T16:18:52.328Z,1.10
2023-01-15T16:21:24.838Z,1.30
2023-01-15T16:24:03.010Z,1.40
2023-01-15T16:26:54.789Z,1.10
2023-01-15T16:29:27.253Z,1.20
2023-01-15T16:31:59.217Z,1.10
2023-01-15T16:34:33.600Z,1.10
2023-01-15T16:37:02.789Z,1.40
2023-01-15T16:39:41.088Z,1.40
2023-01-15T16:42:27.084Z,1.00
2023-01-15T16:45:01.613Z,1.30
2023-01-15T16:47:36.330Z,1.50
2023-01-15T16:50:26.159Z,1.20
2023-01-15T16:53:02.167Z,1.20
2023-01-15T16:55:47.086Z,1.50
2023-01-15T16:58:17.889Z,1.40
2023-01-15T17:00:51.268Z,1.80
2023-01-15T17:03:23.579Z,1.60
2023-01-15T17:06:00.364Z,1.20
2023-01-15T17:08:40.995Z,1.00
2023-01-15T17:11:18.856Z,1.30
2023-01-15T17:13:47.371Z,1.10
2023-01-15T17:16:20.103Z,1.20
2023-01-15T17:18:51.237Z,0.80
2023-01-15T17:21:28.511Z,0.90
2023-01-15T17:24:00.100Z,1.10
2023-01-15T17:26:29.131Z,1.20
2023-01-15T17:28:57.742Z,1.20
2023-01-15T17:31:32.290Z,1.00
2023-01-15T17:34:03.389Z,1.10
2023-01-15T17:36:33.179Z,1.10
2023-01-15T17:39:01.775Z,1.40
2023-01-15T17:41:30.537Z,1.20
2023-01-15T17:43:59.127Z,1.10
2023-01-15T17:46:29.224Z,1.70
2023-01-15T17:48:57.868Z,1.30
2023-01-15T17:51:27.186Z,1.30
2023-01-15T17:53:58.503Z,1.40
2023-01-15T17:56:45.581Z,1.10
2023-01-15T17:59:34.352Z,1.20
2023-01-15T18:02:24.251Z,1.20
2023-01-15T18:05:13.729Z,1.20
2023-01-15T18:07:43.781Z,1.00
2023-01-15T18:10:19.331Z,1.00
2023-01-15T18:12:49.077Z,1.00
2023-01-15T18:15:18.090Z,0.90
2023-01-15T18:17:47.554Z,1.10
2023-01-15T18:20:16.238Z,0.90
2023-01-15T18:22:44.826Z,1.10
2023-01-15T18:25:13.565Z,1.10
2023-01-15T18:27:45.002Z,0.90
2023-01-15T18:30:16.350Z,0.80
2023-01-15T18:32:46.045Z,1.10
2023-01-15T18:35:15.271Z,1.00
2023-01-15T18:37:44.030Z,0.90
2023-01-15T18:40:12.909Z,1.10
2023-01-15T18:43:11.344Z,0.90
2023-01-15T18:45:58.692Z,0.60
2023-01-15T18:48:27.228Z,0.80
2023-01-15T18:50:56.126Z,0.80
2023-01-15T18:53:24.725Z,0.90
2023-01-15T18:55:53.292Z,0.70
2023-01-15T18:58:21.830Z,0.70
2023-01-15T19:00:50.312Z,0.90
2023-01-15T19:03:18.839Z,0.90
2023-01-15T19:05:47.500Z,0.70
2023-01-15T19:08:16.977Z,0.70
2023-01-15T19:10:45.448Z,0.90
2023-01-15T19:13:18.353Z,0.70
2023-01-15T19:16:05.311Z,0.60
2023-01-15T19:18:42.960Z,1.00
2023-01-15T19:21:13.204Z,0.70
2023-01-15T19:23:41.680Z,0.60
2023-01-15T19:26:10.322Z,0.80
2023-01-15T19:28:38.854Z,0.80
2023-01-15T19:31:27.437Z,0.70
2023-01-15T19:34:31.200Z,0.60
2023-01-15T19:36:50.357Z,0.50
2023-01-15T19:39:19.074Z,0.60
2023-01-15T19:42:06.500Z,0.90
2023-01-15T19:44:53.567Z,0.90
2023-01-15T19:47:56.453Z,0.90
2023-01-15T19:50:40.751Z,0.70
2023-01-15T19:53:10.799Z,0.80
2023-01-15T19:55:41.947Z,0.90
2023-01-15T19:58:13.148Z,0.70
2023-01-15T20:00:43.917Z,0.50
2023-01-15T20:03:12.718Z,0.60
2023-01-15T20:05:43.201Z,0.70
2023-01-15T20:08:14.149Z,0.60
2023-01-15T20:10:45.483Z,0.70
2023-01-15T20:13:38.948Z,0.50
2023-01-15T20:16:10.206Z,0.50
2023-01-15T20:18:39.737Z,0.70
2023-01-15T20:21:08.901Z,0.70
2023-01-15T20:23:37.712Z,0.70
2023-01-15T20:26:12.734Z,0.50
2023-01-15T20:28:42.845Z,0.70
2023-01-15T20:31:17.203Z,0.60
2023-01-15T20:33:46.968Z,0.90
2023-01-15T20:36:15.933Z,0.70
2023-01-15T20:38:44.507Z,0.50
2023-01-15T20:41:31.691Z,0.60
2023-01-15T20:44:18.740Z,0.50
2023-01-15T20:46:47.248Z,0.60
2023-01-15T20:49:25.461Z,0.40
2023-01-15T20:51:55.563Z,0.80
2023-01-15T20:54:25.901Z,0.50
2023-01-15T20:56:54.491Z,0.50
2023-01-15T20:59:22.985Z,0.70
2023-01-15T21:01:53.525Z,0.70
2023-01-15T21:04:23.533Z,0.60
2023-01-15T21:06:53.523Z,0.60
2023-01-15T21:09:21.978Z,0.50
2023-01-15T21:11:50.664Z,0.80
2023-01-15T21:14:19.698Z,0.70
2023-01-15T21:16:51.723Z,0.80
2023-01-15T21:19:23.055Z,0.70
2023-01-15T21:21:51.919Z,0.60
2023-01-15T21:24:28.835Z,0.70
2023-01-15T21:26:57.409Z,0.50
2023-01-15T21:29:26.026Z,0.70
2023-01-15T21:31:54.597Z,0.70
2023-01-15T21:34:23.430Z,0.60
2023-01-15T21:36:51.973Z,0.90
2023-01-15T21:39:21.093Z,0.90
2023-01-15T21:42:09.437Z,0.70
2023-01-15T21:44:44.625Z,0.60
2023-01-15T21:47:15.979Z,0.50
2023-01-15T21:49:45.706Z,0.80
2023-01-15T21:52:17.366Z,0.70
2023-01-15T21:54:47.891Z,0.60
2023-01-15T21:57:16.433Z,0.80
2023-01-15T21:59:46.130Z,0.70
2023-01-15T22:02:17.490Z,0.50
2023-01-15T22:04:47.282Z,0.70
2023-01-15T22:07:18.016Z,0.70
2023-01-15T22:09:46.596Z,0.60
2023-01-15T22:12:15.170Z,0.50
2023-01-15T22:14:43.766Z,0.50
2023-01-15T22:17:12.462Z,0.60
2023-01-15T22:19:53.160Z,0.60
2023-01-15T22:22:23.190Z,0.60
2023-01-15T22:24:51.772Z,0.70
2023-01-15T22:27:21.023Z,0.40
2023-01-15T22:29:49.579Z,0.80
2023-01-15T22:32:18.080Z,0.80
2023-01-15T22:34:48.005Z,0.70
2023-01-15T22:37:16.887Z,0.70
2023-01-15T22:39:45.474Z,0.70
2023-01-15T22:42:28.036Z,0.70
2023-01-15T22:45:00.044Z,0.50
2023-01-15T22:47:29.497Z,0.50
2023-01-15T22:49:58.269Z,0.70
2023-01-15T22:52:27.631Z,0.90
2023-01-15T22:54:56.174Z,0.60
2023-01-15T22:57:26.539Z,0.70
2023-01-15T22:59:55.021Z,0.60
2023-01-15T23:02:43.661Z,0.70
2023-01-15T23:05:13.690Z,0.60
2023-01-15T23:07:42.247Z,0.60
2023-01-15T23:10:12.466Z,0.50
2023-01-15T23:12:42.810Z,0.60
2023-01-15T23:15:13.567Z,0.50
2023-01-15T23:17:48.313Z,0.70
2023-01-15T23:20:16.867Z,0.60
2023-01-15T23:22:45.347Z,0.80
2023-01-15T23:25:13.973Z,0.90
2023-01-15T23:27:42.399Z,0.40
2023-01-15T23:30:11.802Z,0.90
2023-01-15T23:32:40.606Z,0.90
2023-01-15T23:35:09.982Z,0.60
2023-01-15T23:37:39.163Z,0.60
2023-01-15T23:40:08.984Z,0.50
2023-01-15T23:42:56.397Z,0.60
2023-01-15T23:45:43.895Z,0.70
2023-01-15T23:48:12.333Z,0.60
2023-01-15T23:50:40.873Z,0.70
2023-01-15T23:53:09.330Z,0.50
2023-01-15T23:55:37.811Z,0.80
2023-01-15T23:58:06.352Z,0.50
